sensor_id;sensor_type;location;lat;lon;timestamp;pressure;altitude;pressure_sealevel;temperature;humidity
7962;BME280;4026;43.652;24.906;2023-03-13T00:00:57;99585.06;;;2.24;95.25
7962;BME280;4026;43.652;24.906;2023-03-13T00:03:25;99587.53;;;2.27;94.97
7962;BME280;4026;43.652;24.906;2023-03-13T00:05:56;99588.75;;;2.14;95.70
7962;BME280;4026;43.652;24.906;2023-03-13T00:08:23;99587.34;;;2.05;96.58
7962;BME280;4026;43.652;24.906;2023-03-13T00:10:50;99590.69;;;2.06;96.35
7962;BME280;4026;43.652;24.906;2023-03-13T00:13:17;99599.97;;;2.03;96.39
7962;BME280;4026;43.652;24.906;2023-03-13T00:15:44;99602.50;;;2.03;96.13
7962;BME280;4026;43.652;24.906;2023-03-13T00:18:11;99599.22;;;2.01;96.08
7962;BME280;4026;43.652;24.906;2023-03-13T00:20:38;99597.53;;;2.00;96.08
7962;BME280;4026;43.652;24.906;2023-03-13T00:23:06;99598.50;;;1.98;96.46
7962;BME280;4026;43.652;24.906;2023-03-13T00:25:33;99599.50;;;1.92;96.77
7962;BME280;4026;43.652;24.906;2023-03-13T00:28:00;99592.84;;;1.88;96.88
7962;BME280;4026;43.652;24.906;2023-03-13T00:30:27;99591.31;;;1.84;97.29
7962;BME280;4026;43.652;24.906;2023-03-13T00:32:53;99599.63;;;1.86;97.16
7962;BME280;4026;43.652;24.906;2023-03-13T00:35:20;99599.81;;;1.80;97.24
7962;BME280;4026;43.652;24.906;2023-03-13T00:37:47;99606.69;;;1.75;97.51
7962;BME280;4026;43.652;24.906;2023-03-13T00:40:15;99604.41;;;1.66;98.49
7962;BME280;4026;43.652;24.906;2023-03-13T00:42:44;99593.91;;;1.51;98.77
7962;BME280;4026;43.652;24.906;2023-03-13T00:45:11;99598.22;;;1.46;98.88
7962;BME280;4026;43.652;24.906;2023-03-13T00:47:38;99594.69;;;1.21;99.80
7962;BME280;4026;43.652;24.906;2023-03-13T00:50:05;99594.69;;;1.21;100.00
7962;BME280;4026;43.652;24.906;2023-03-13T00:52:32;99598.78;;;1.25;100.00
7962;BME280;4026;43.652;24.906;2023-03-13T00:54:59;99598.09;;;1.20;100.00
7962;BME280;4026;43.652;24.906;2023-03-13T00:57:27;99596.59;;;1.12;100.00
7962;BME280;4026;43.652;24.906;2023-03-13T00:59:54;99601.84;;;1.03;100.00
7962;BME280;4026;43.652;24.906;2023-03-13T01:02:21;99595.34;;;0.96;100.00
7962;BME280;4026;43.652;24.906;2023-03-13T01:04:48;99596.34;;;0.89;100.00
7962;BME280;4026;43.652;24.906;2023-03-13T01:07:14;99596.50;;;0.83;100.00
7962;BME280;4026;43.652;24.906;2023-03-13T01:09:41;99594.03;;;0.80;100.00
7962;BME280;4026;43.652;24.906;2023-03-13T01:12:08;99596.56;;;0.80;100.00
7962;BME280;4026;43.652;24.906;2023-03-13T01:14:36;99601.63;;;0.78;100.00
7962;BME280;4026;43.652;24.906;2023-03-13T01:17:03;99598.44;;;0.72;100.00
7962;BME280;4026;43.652;24.906;2023-03-13T01:19:30;99606.81;;;0.72;100.00
7962;BME280;4026;43.652;24.906;2023-03-13T01:21:57;99613.69;;;0.65;100.00
7962;BME280;4026;43.652;24.906;2023-03-13T01:24:24;99604.66;;;0.55;100.00
7962;BME280;4026;43.652;24.906;2023-03-13T01:26:50;99609.66;;;0.58;100.00
7962;BME280;4026;43.652;24.906;2023-03-13T01:29:17;99606.41;;;0.53;100.00
7962;BME280;4026;43.652;24.906;2023-03-13T01:31:45;99614.72;;;0.55;100.00
7962;BME280;4026;43.652;24.906;2023-03-13T01:34:12;99609.00;;;0.50;100.00
7962;BME280;4026;43.652;24.906;2023-03-13T01:36:39;99608.13;;;0.51;100.00
7962;BME280;4026;43.652;24.906;2023-03-13T01:39:06;99608.28;;;0.45;100.00
7962;BME280;4026;43.652;24.906;2023-03-13T01:41:33;99610.00;;;0.43;100.00
7962;BME280;4026;43.652;24.906;2023-03-13T01:44:00;99616.75;;;0.41;100.00
7962;BME280;4026;43.652;24.906;2023-03-13T01:46:27;99611.66;;;0.44;100.00
7962;BME280;4026;43.652;24.906;2023-03-13T01:48:59;99613.31;;;0.45;100.00
7962;BME280;4026;43.652;24.906;2023-03-13T01:51:32;99615.78;;;0.47;100.00
7962;BME280;4026;43.652;24.906;2023-03-13T01:54:04;99611.06;;;0.33;100.00
7962;BME280;4026;43.652;24.906;2023-03-13T01:56:36;99618.63;;;0.31;100.00
7962;BME280;4026;43.652;24.906;2023-03-13T01:59:05;99617.06;;;0.26;100.00
7962;BME280;4026;43.652;24.906;2023-03-13T02:01:34;99616.41;;;0.19;100.00
7962;BME280;4026;43.652;24.906;2023-03-13T02:04:04;99624.81;;;0.18;100.00
7962;BME280;4026;43.652;24.906;2023-03-13T02:06:32;99629.78;;;0.19;100.00
7962;BME280;4026;43.652;24.906;2023-03-13T02:09:04;99639.09;;;0.14;100.00
7962;BME280;4026;43.652;24.906;2023-03-13T02:11:39;99642.56;;;0.10;100.00
7962;BME280;4026;43.652;24.906;2023-03-13T02:14:09;99640.25;;;-0.01;100.00
7962;BME280;4026;43.652;24.906;2023-03-13T02:16:38;99642.75;;;0.01;100.00
7962;BME280;4026;43.652;24.906;2023-03-13T02:19:17;99646.06;;;0.03;100.00
7962;BME280;4026;43.652;24.906;2023-03-13T02:21:49;99639.31;;;0.05;100.00
7962;BME280;4026;43.652;24.906;2023-03-13T02:24:25;99643.63;;;0.00;100.00
7962;BME280;4026;43.652;24.906;2023-03-13T02:26:57;99651.19;;;-0.03;100.00
7962;BME280;4026;43.652;24.906;2023-03-13T02:29:24;99657.09;;;-0.04;100.00
7962;BME280;4026;43.652;24.906;2023-03-13T02:31:52;99658.72;;;-0.02;100.00
7962;BME280;4026;43.652;24.906;2023-03-13T02:34:21;99666.28;;;-0.03;100.00
7962;BME280;4026;43.652;24.906;2023-03-13T02:36:50;99663.09;;;-0.11;100.00
7962;BME280;4026;43.652;24.906;2023-03-13T02:39:19;99663.22;;;-0.17;100.00
7962;BME280;4026;43.652;24.906;2023-03-13T02:41:48;99670.84;;;-0.24;100.00
7962;BME280;4026;43.652;24.906;2023-03-13T02:44:18;99674.22;;;-0.23;100.00
7962;BME280;4026;43.652;24.906;2023-03-13T02:46:47;99676.81;;;-0.28;100.00
7962;BME280;4026;43.652;24.906;2023-03-13T02:49:23;99675.16;;;-0.29;100.00
7962;BME280;4026;43.652;24.906;2023-03-13T02:51:51;99680.19;;;-0.29;100.00
7962;BME280;4026;43.652;24.906;2023-03-13T02:54:21;99689.34;;;-0.26;100.00
7962;BME280;4026;43.652;24.906;2023-03-13T02:56:52;99679.25;;;-0.23;100.00
7962;BME280;4026;43.652;24.906;2023-03-13T02:59:22;99681.78;;;-0.25;100.00
7962;BME280;4026;43.652;24.906;2023-03-13T03:01:49;99680.25;;;-0.32;100.00
7962;BME280;4026;43.652;24.906;2023-03-13T03:04:18;99675.03;;;-0.22;100.00
7962;BME280;4026;43.652;24.906;2023-03-13T03:06:45;99671.78;;;-0.28;100.00
7962;BME280;4026;43.652;24.906;2023-03-13T03:09:12;99675.97;;;-0.28;100.00
7962;BME280;4026;43.652;24.906;2023-03-13T03:11:39;99685.28;;;-0.32;100.00
7962;BME280;4026;43.652;24.906;2023-03-13T03:14:06;99686.91;;;-0.31;100.00
7962;BME280;4026;43.652;24.906;2023-03-13T03:16:34;99690.38;;;-0.38;100.00
7962;BME280;4026;43.652;24.906;2023-03-13T03:19:01;99695.47;;;-0.41;100.00
7962;BME280;4026;43.652;24.906;2023-03-13T03:21:28;99697.16;;;-0.41;100.00
7962;BME280;4026;43.652;24.906;2023-03-13T03:23:55;99698.84;;;-0.42;100.00
7962;BME280;4026;43.652;24.906;2023-03-13T03:26:22;99700.63;;;-0.49;100.00
7962;BME280;4026;43.652;24.906;2023-03-13T03:28:49;99707.41;;;-0.54;100.00
7962;BME280;4026;43.652;24.906;2023-03-13T03:31:16;99702.44;;;-0.58;100.00
7962;BME280;4026;43.652;24.906;2023-03-13T03:33:44;99703.38;;;-0.61;100.00
7962;BME280;4026;43.652;24.906;2023-03-13T03:36:13;99709.22;;;-0.60;100.00
7962;BME280;4026;43.652;24.906;2023-03-13T03:38:41;99713.38;;;-0.59;100.00
7962;BME280;4026;43.652;24.906;2023-03-13T03:41:09;99722.66;;;-0.64;100.00
7962;BME280;4026;43.652;24.906;2023-03-13T03:43:36;99721.00;;;-0.65;100.00
7962;BME280;4026;43.652;24.906;2023-03-13T03:46:04;99730.22;;;-0.66;100.00
7962;BME280;4026;43.652;24.906;2023-03-13T03:48:31;99735.25;;;-0.68;100.00
7962;BME280;4026;43.652;24.906;2023-03-13T03:50:59;99734.38;;;-0.63;100.00
7962;BME280;4026;43.652;24.906;2023-03-13T03:53:26;99745.09;;;-0.54;100.00
7962;BME280;4026;43.652;24.906;2023-03-13T03:55:53;99749.19;;;-0.48;100.00
7962;BME280;4026;43.652;24.906;2023-03-13T03:58:20;99757.44;;;-0.40;100.00
7962;BME280;4026;43.652;24.906;2023-03-13T04:00:47;99770.75;;;-0.35;100.00
7962;BME280;4026;43.652;24.906;2023-03-13T04:03:14;99775.78;;;-0.38;100.00
7962;BME280;4026;43.652;24.906;2023-03-13T04:05:42;99775.13;;;-0.48;100.00
7962;BME280;4026;43.652;24.906;2023-03-13T04:08:10;99779.22;;;-0.42;100.00
7962;BME280;4026;43.652;24.906;2023-03-13T04:10:37;99782.66;;;-0.46;100.00
7962;BME280;4026;43.652;24.906;2023-03-13T04:13:04;99794.44;;;-0.51;100.00
7962;BME280;4026;43.652;24.906;2023-03-13T04:15:31;99798.59;;;-0.49;100.00
7962;BME280;4026;43.652;24.906;2023-03-13T04:17:58;99801.06;;;-0.46;100.00
7962;BME280;4026;43.652;24.906;2023-03-13T04:20:25;99811.09;;;-0.47;100.00
7962;BME280;4026;43.652;24.906;2023-03-13T04:22:53;99803.56;;;-0.47;100.00
7962;BME280;4026;43.652;24.906;2023-03-13T04:25:21;99807.69;;;-0.41;100.00
7962;BME280;4026;43.652;24.906;2023-03-13T04:27:48;99811.94;;;-0.45;100.00
7962;BME280;4026;43.652;24.906;2023-03-13T04:30:15;99816.09;;;-0.44;100.00
7962;BME280;4026;43.652;24.906;2023-03-13T04:32:42;99816.03;;;-0.41;100.00
7962;BME280;4026;43.652;24.906;2023-03-13T04:35:09;99828.63;;;-0.42;100.00
7962;BME280;4026;43.652;24.906;2023-03-13T04:37:36;99824.44;;;-0.42;100.00
7962;BME280;4026;43.652;24.906;2023-03-13T04:40:03;99836.09;;;-0.38;100.00
7962;BME280;4026;43.652;24.906;2023-03-13T04:42:32;99829.31;;;-0.31;100.00
7962;BME280;4026;43.652;24.906;2023-03-13T04:44:59;99835.09;;;-0.28;100.00
7962;BME280;4026;43.652;24.906;2023-03-13T04:47:26;99841.72;;;-0.24;100.00
7962;BME280;4026;43.652;24.906;2023-03-13T04:49:53;99843.44;;;-0.26;100.00
7962;BME280;4026;43.652;24.906;2023-03-13T04:52:20;99837.63;;;-0.28;100.00
7962;BME280;4026;43.652;24.906;2023-03-13T04:54:47;99845.91;;;-0.22;100.00
7962;BME280;4026;43.652;24.906;2023-03-13T04:57:15;99845.91;;;-0.22;100.00
7962;BME280;4026;43.652;24.906;2023-03-13T04:59:43;99839.31;;;-0.30;100.00
7962;BME280;4026;43.652;24.906;2023-03-13T05:02:10;99844.34;;;-0.30;100.00
7962;BME280;4026;43.652;24.906;2023-03-13T05:04:38;99849.13;;;-0.14;100.00
7962;BME280;4026;43.652;24.906;2023-03-13T05:07:04;99860.59;;;0.02;100.00
7962;BME280;4026;43.652;24.906;2023-03-13T05:09:31;99863.75;;;0.13;100.00
7962;BME280;4026;43.652;24.906;2023-03-13T05:11:58;99863.63;;;0.19;100.00
7962;BME280;4026;43.652;24.906;2023-03-13T05:14:25;99864.00;;;0.46;100.00
7962;BME280;4026;43.652;24.906;2023-03-13T05:16:54;99864.28;;;0.76;100.00
7962;BME280;4026;43.652;24.906;2023-03-13T05:19:20;99867.94;;;1.03;99.86
7962;BME280;4026;43.652;24.906;2023-03-13T05:21:47;99878.25;;;1.31;97.92
7962;BME280;4026;43.652;24.906;2023-03-13T05:24:14;99876.69;;;1.63;95.38
7962;BME280;4026;43.652;24.906;2023-03-13T05:26:41;99877.69;;;1.93;93.41
7962;BME280;4026;43.652;24.906;2023-03-13T05:29:08;99881.13;;;2.23;91.62
7962;BME280;4026;43.652;24.906;2023-03-13T05:31:34;99883.72;;;2.53;89.42
7962;BME280;4026;43.652;24.906;2023-03-13T05:34:03;99880.84;;;2.66;88.31
7962;BME280;4026;43.652;24.906;2023-03-13T05:36:30;99888.47;;;2.65;88.16
7962;BME280;4026;43.652;24.906;2023-03-13T05:38:56;99889.41;;;2.90;87.91
7962;BME280;4026;43.652;24.906;2023-03-13T05:41:23;99886.31;;;3.12;86.28
7962;BME280;4026;43.652;24.906;2023-03-13T05:43:50;99884.44;;;3.17;84.83
7962;BME280;4026;43.652;24.906;2023-03-13T05:46:17;99891.97;;;3.48;84.82
7962;BME280;4026;43.652;24.906;2023-03-13T05:48:44;99895.78;;;3.88;83.33
7962;BME280;4026;43.652;24.906;2023-03-13T05:51:12;99894.34;;;4.32;82.76
7962;BME280;4026;43.652;24.906;2023-03-13T05:53:39;99900.91;;;4.63;80.22
7962;BME280;4026;43.652;24.906;2023-03-13T05:56:06;99902.19;;;4.98;78.84
7962;BME280;4026;43.652;24.906;2023-03-13T05:58:33;99896.06;;;5.26;75.98
7962;BME280;4026;43.652;24.906;2023-03-13T06:01:05;99899.66;;;5.44;74.18
7962;BME280;4026;43.652;24.906;2023-03-13T06:03:32;99900.09;;;5.76;73.37
7962;BME280;4026;43.652;24.906;2023-03-13T06:05:59;99900.31;;;6.13;70.55
7962;BME280;4026;43.652;24.906;2023-03-13T06:08:27;99897.75;;;6.34;68.38
7962;BME280;4026;43.652;24.906;2023-03-13T06:10:57;99901.72;;;6.41;67.92
7962;BME280;4026;43.652;24.906;2023-03-13T06:13:24;99893.03;;;6.66;67.50
7962;BME280;4026;43.652;24.906;2023-03-13T06:15:52;99893.91;;;7.04;66.83
7962;BME280;4026;43.652;24.906;2023-03-13T06:18:19;99879.88;;;7.33;64.70
7962;BME280;4026;43.652;24.906;2023-03-13T06:20:47;99881.75;;;7.47;62.53
7962;BME280;4026;43.652;24.906;2023-03-13T06:23:14;99877.94;;;7.38;61.60
7962;BME280;4026;43.652;24.906;2023-03-13T06:25:46;99871.88;;;7.41;61.64
7962;BME280;4026;43.652;24.906;2023-03-13T06:28:12;99872.69;;;7.41;62.30
7962;BME280;4026;43.652;24.906;2023-03-13T06:30:39;99870.19;;;7.59;63.32
7962;BME280;4026;43.652;24.906;2023-03-13T06:33:06;99878.38;;;7.83;62.88
7962;BME280;4026;43.652;24.906;2023-03-13T06:35:34;99882.78;;;8.31;61.06
7962;BME280;4026;43.652;24.906;2023-03-13T06:38:00;99879.34;;;8.50;59.25
7962;BME280;4026;43.652;24.906;2023-03-13T06:40:27;99878.66;;;8.79;59.12
7962;BME280;4026;43.652;24.906;2023-03-13T06:42:55;99875.25;;;8.63;57.19
7962;BME280;4026;43.652;24.906;2023-03-13T06:45:23;99878.56;;;8.65;58.39
7962;BME280;4026;43.652;24.906;2023-03-13T06:47:49;99888.47;;;9.19;57.60
7962;BME280;4026;43.652;24.906;2023-03-13T06:50:17;99880.75;;;9.20;56.87
7962;BME280;4026;43.652;24.906;2023-03-13T06:52:45;99886.97;;;9.62;56.76
7962;BME280;4026;43.652;24.906;2023-03-13T06:55:12;99888.56;;;9.95;55.78
7962;BME280;4026;43.652;24.906;2023-03-13T06:57:39;99897.19;;;10.23;55.04
7962;BME280;4026;43.652;24.906;2023-03-13T07:00:09;99896.63;;;10.17;54.78
7962;BME280;4026;43.652;24.906;2023-03-13T07:02:36;99889.84;;;10.02;54.84
7962;BME280;4026;43.652;24.906;2023-03-13T07:05:04;99881.63;;;9.67;52.84
7962;BME280;4026;43.652;24.906;2023-03-13T07:07:32;99885.97;;;10.25;55.00
7962;BME280;4026;43.652;24.906;2023-03-13T07:09:59;99888.28;;;10.30;52.43
7962;BME280;4026;43.652;24.906;2023-03-13T07:12:26;99889.03;;;10.46;53.41
7962;BME280;4026;43.652;24.906;2023-03-13T07:14:53;99879.91;;;10.56;52.09
7962;BME280;4026;43.652;24.906;2023-03-13T07:17:21;99890.00;;;11.01;52.30
7962;BME280;4026;43.652;24.906;2023-03-13T07:19:48;99886.69;;;11.40;51.96
7962;BME280;4026;43.652;24.906;2023-03-13T07:22:15;99887.88;;;11.76;51.37
7962;BME280;4026;43.652;24.906;2023-03-13T07:24:42;99888.72;;;11.89;49.55
7962;BME280;4026;43.652;24.906;2023-03-13T07:27:09;99883.44;;;12.18;49.50
7962;BME280;4026;43.652;24.906;2023-03-13T07:29:36;99889.75;;;11.60;50.12
7962;BME280;4026;43.652;24.906;2023-03-13T07:32:03;99893.19;;;11.73;50.49
7962;BME280;4026;43.652;24.906;2023-03-13T07:34:31;99895.03;;;11.84;49.09
7962;BME280;4026;43.652;24.906;2023-03-13T07:36:58;99886.75;;;12.20;50.23
7962;BME280;4026;43.652;24.906;2023-03-13T07:39:25;99888.81;;;12.40;50.74
7962;BME280;4026;43.652;24.906;2023-03-13T07:41:51;99889.16;;;12.85;49.53
7962;BME280;4026;43.652;24.906;2023-03-13T07:44:18;99884.09;;;12.60;50.85
7962;BME280;4026;43.652;24.906;2023-03-13T07:46:45;99891.78;;;13.09;48.94
7962;BME280;4026;43.652;24.906;2023-03-13T07:49:14;99895.50;;;13.42;49.56
7962;BME280;4026;43.652;24.906;2023-03-13T07:51:43;99893.25;;;13.01;46.03
7962;BME280;4026;43.652;24.906;2023-03-13T07:54:12;99897.53;;;13.13;49.05
7962;BME280;4026;43.652;24.906;2023-03-13T07:56:39;99898.06;;;13.42;48.79
7962;BME280;4026;43.652;24.906;2023-03-13T07:59:06;99900.13;;;13.61;48.39
7962;BME280;4026;43.652;24.906;2023-03-13T08:01:32;99899.81;;;14.01;45.80
7962;BME280;4026;43.652;24.906;2023-03-13T08:04:00;99903.16;;;13.55;49.52
7962;BME280;4026;43.652;24.906;2023-03-13T08:06:29;99901.72;;;14.10;46.72
7962;BME280;4026;43.652;24.906;2023-03-13T08:08:58;99896.69;;;14.66;47.99
7962;BME280;4026;43.652;24.906;2023-03-13T08:11:26;99899.00;;;14.58;46.49
7962;BME280;4026;43.652;24.906;2023-03-13T08:13:55;99896.28;;;14.37;45.68
7962;BME280;4026;43.652;24.906;2023-03-13T08:16:23;99903.78;;;13.94;46.69
7962;BME280;4026;43.652;24.906;2023-03-13T08:18:52;99902.34;;;13.90;45.44
7962;BME280;4026;43.652;24.906;2023-03-13T08:21:21;99898.03;;;13.90;45.55
7962;BME280;4026;43.652;24.906;2023-03-13T08:23:52;99895.66;;;14.34;46.67
7962;BME280;4026;43.652;24.906;2023-03-13T08:26:21;99889.16;;;14.75;45.25
7962;BME280;4026;43.652;24.906;2023-03-13T08:28:52;99886.75;;;15.28;45.67
7962;BME280;4026;43.652;24.906;2023-03-13T08:31:22;99885.63;;;15.09;48.66
7962;BME280;4026;43.652;24.906;2023-03-13T08:33:49;99886.78;;;15.60;43.64
7962;BME280;4026;43.652;24.906;2023-03-13T08:36:18;99887.13;;;15.88;42.85
7962;BME280;4026;43.652;24.906;2023-03-13T08:38:46;99876.56;;;15.70;45.01
7962;BME280;4026;43.652;24.906;2023-03-13T08:41:14;99872.69;;;15.64;42.67
7962;BME280;4026;43.652;24.906;2023-03-13T08:43:44;99875.81;;;16.21;41.91
7962;BME280;4026;43.652;24.906;2023-03-13T08:46:11;99870.53;;;16.22;39.75
7962;BME280;4026;43.652;24.906;2023-03-13T08:48:38;99877.91;;;16.06;42.64
7962;BME280;4026;43.652;24.906;2023-03-13T08:51:07;99878.16;;;16.85;40.95
7962;BME280;4026;43.652;24.906;2023-03-13T08:53:35;99878.78;;;17.37;41.57
7962;BME280;4026;43.652;24.906;2023-03-13T08:56:03;99880.00;;;17.24;39.54
7962;BME280;4026;43.652;24.906;2023-03-13T08:58:31;99886.72;;;16.95;39.66
7962;BME280;4026;43.652;24.906;2023-03-13T09:01:02;99883.53;;;15.79;43.31
7962;BME280;4026;43.652;24.906;2023-03-13T09:03:30;99884.91;;;15.62;42.50
7962;BME280;4026;43.652;24.906;2023-03-13T09:05:57;99876.94;;;16.28;39.53
7962;BME280;4026;43.652;24.906;2023-03-13T09:08:25;99875.09;;;16.40;41.34
7962;BME280;4026;43.652;24.906;2023-03-13T09:10:56;99879.03;;;17.05;41.20
7962;BME280;4026;43.652;24.906;2023-03-13T09:13:23;99876.44;;;16.65;40.11
7962;BME280;4026;43.652;24.906;2023-03-13T09:15:54;99881.06;;;17.11;41.55
7962;BME280;4026;43.652;24.906;2023-03-13T09:18:23;99869.72;;;16.01;43.68
7962;BME280;4026;43.652;24.906;2023-03-13T09:20:50;99878.75;;;16.37;42.07
7962;BME280;4026;43.652;24.906;2023-03-13T09:23:17;99873.19;;;15.14;38.73
7962;BME280;4026;43.652;24.906;2023-03-13T09:25:44;99868.28;;;15.87;41.59
7962;BME280;4026;43.652;24.906;2023-03-13T09:28:11;99870.75;;;15.56;41.87
7962;BME280;4026;43.652;24.906;2023-03-13T09:30:38;99860.66;;;15.21;42.47
7962;BME280;4026;43.652;24.906;2023-03-13T09:33:05;99873.50;;;14.78;42.31
7962;BME280;4026;43.652;24.906;2023-03-13T09:35:33;99876.81;;;15.55;42.43
7962;BME280;4026;43.652;24.906;2023-03-13T09:38:00;99866.06;;;16.24;43.30
7962;BME280;4026;43.652;24.906;2023-03-13T09:40:27;99862.38;;;16.58;41.38
7962;BME280;4026;43.652;24.906;2023-03-13T09:42:56;99853.03;;;16.87;39.38
7962;BME280;4026;43.652;24.906;2023-03-13T09:45:29;99857.16;;;17.58;39.90
7962;BME280;4026;43.652;24.906;2023-03-13T09:48:01;99857.72;;;17.52;39.88
7962;BME280;4026;43.652;24.906;2023-03-13T09:50:34;99858.25;;;17.26;39.82
7962;BME280;4026;43.652;24.906;2023-03-13T09:53:10;99848.47;;;17.39;41.26
7962;BME280;4026;43.652;24.906;2023-03-13T09:55:40;99851.44;;;17.35;39.09
7962;BME280;4026;43.652;24.906;2023-03-13T09:58:12;99849.00;;;17.14;36.65
7962;BME280;4026;43.652;24.906;2023-03-13T10:00:46;99850.09;;;16.40;36.14
7962;BME280;4026;43.652;24.906;2023-03-13T10:03:16;99837.53;;;16.26;41.66
7962;BME280;4026;43.652;24.906;2023-03-13T10:05:48;99839.13;;;16.79;39.75
7962;BME280;4026;43.652;24.906;2023-03-13T10:08:18;99837.41;;;15.65;38.61
7962;BME280;4026;43.652;24.906;2023-03-13T10:10:48;99837.91;;;16.12;41.07
7962;BME280;4026;43.652;24.906;2023-03-13T10:13:21;99833.75;;;16.30;37.86
7962;BME280;4026;43.652;24.906;2023-03-13T10:15:50;99824.38;;;16.69;41.23
7962;BME280;4026;43.652;24.906;2023-03-13T10:18:21;99836.47;;;17.48;40.71
7962;BME280;4026;43.652;24.906;2023-03-13T10:20:52;99835.34;;;17.99;39.74
7962;BME280;4026;43.652;24.906;2023-03-13T10:23:25;99830.19;;;17.70;37.69
7962;BME280;4026;43.652;24.906;2023-03-13T10:25:54;99827.47;;;18.01;37.68
7962;BME280;4026;43.652;24.906;2023-03-13T10:28:20;99828.47;;;18.18;37.98
7962;BME280;4026;43.652;24.906;2023-03-13T10:30:49;99813.78;;;18.18;38.03
7962;BME280;4026;43.652;24.906;2023-03-13T10:33:19;99813.22;;;18.24;39.12
7962;BME280;4026;43.652;24.906;2023-03-13T10:36:00;99813.63;;;17.14;39.82
7962;BME280;4026;43.652;24.906;2023-03-13T10:38:27;99807.28;;;15.44;37.45
7962;BME280;4026;43.652;24.906;2023-03-13T10:41:00;99798.75;;;13.54;42.71
7962;BME280;4026;43.652;24.906;2023-03-13T10:43:28;99797.91;;;14.79;43.96
7962;BME280;4026;43.652;24.906;2023-03-13T10:45:55;99797.78;;;15.77;43.20
7962;BME280;4026;43.652;24.906;2023-03-13T10:48:24;99792.41;;;16.61;36.09
7962;BME280;4026;43.652;24.906;2023-03-13T10:50:53;99790.34;;;16.85;41.72
7962;BME280;4026;43.652;24.906;2023-03-13T10:53:31;99789.19;;;16.28;37.66
7962;BME280;4026;43.652;24.906;2023-03-13T10:56:03;99786.41;;;17.01;39.42
7962;BME280;4026;43.652;24.906;2023-03-13T10:58:36;99777.69;;;16.32;36.50
7962;BME280;4026;43.652;24.906;2023-03-13T11:01:15;99767.75;;;16.37;42.52
7962;BME280;4026;43.652;24.906;2023-03-13T11:03:43;99771.47;;;15.62;40.04
7962;BME280;4026;43.652;24.906;2023-03-13T11:06:23;99765.59;;;16.02;42.79
7962;BME280;4026;43.652;24.906;2023-03-13T11:09:00;99771.25;;;14.68;40.63
7962;BME280;4026;43.652;24.906;2023-03-13T11:11:27;99762.84;;;15.10;39.89
7962;BME280;4026;43.652;24.906;2023-03-13T11:14:07;99752.63;;;15.08;39.59
7962;BME280;4026;43.652;24.906;2023-03-13T11:16:38;99744.59;;;16.06;42.44
7962;BME280;4026;43.652;24.906;2023-03-13T11:22:06;99755.00;;;16.95;38.76
7962;BME280;4026;43.652;24.906;2023-03-13T11:24:43;99737.84;;;18.00;38.77
7962;BME280;4026;43.652;24.906;2023-03-13T11:27:18;99732.94;;;15.60;35.40
7962;BME280;4026;43.652;24.906;2023-03-13T11:29:54;99726.94;;;14.97;38.61
7962;BME280;4026;43.652;24.906;2023-03-13T11:32:30;99726.31;;;14.73;41.10
7962;BME280;4026;43.652;24.906;2023-03-13T11:35:03;99719.84;;;14.89;39.73
7962;BME280;4026;43.652;24.906;2023-03-13T11:37:34;99717.47;;;16.22;37.63
7962;BME280;4026;43.652;24.906;2023-03-13T11:40:14;99718.97;;;17.04;38.65
7962;BME280;4026;43.652;24.906;2023-03-13T11:42:56;99712.81;;;17.43;35.24
7962;BME280;4026;43.652;24.906;2023-03-13T11:46:00;99705.78;;;17.73;35.97
7962;BME280;4026;43.652;24.906;2023-03-13T11:48:46;99704.78;;;17.27;38.29
7962;BME280;4026;43.652;24.906;2023-03-13T11:51:20;99703.94;;;16.39;39.56
7962;BME280;4026;43.652;24.906;2023-03-13T11:54:16;99706.09;;;16.34;38.18
7962;BME280;4026;43.652;24.906;2023-03-13T11:56:54;99707.13;;;17.20;37.62
7962;BME280;4026;43.652;24.906;2023-03-13T11:59:31;99698.72;;;17.65;36.40
7962;BME280;4026;43.652;24.906;2023-03-13T12:02:09;99699.09;;;16.56;34.16
7962;BME280;4026;43.652;24.906;2023-03-13T12:04:43;99690.69;;;16.92;35.29
7962;BME280;4026;43.652;24.906;2023-03-13T12:07:19;99686.63;;;17.66;37.93
7962;BME280;4026;43.652;24.906;2023-03-13T12:09:49;99681.00;;;18.08;33.80
7962;BME280;4026;43.652;24.906;2023-03-13T12:12:31;99678.03;;;15.39;36.25
7962;BME280;4026;43.652;24.906;2023-03-13T12:15:06;99681.41;;;16.61;35.66
7962;BME280;4026;43.652;24.906;2023-03-13T12:17:36;99674.06;;;17.24;36.44
7962;BME280;4026;43.652;24.906;2023-03-13T12:20:10;99673.66;;;17.76;33.91
7962;BME280;4026;43.652;24.906;2023-03-13T12:22:41;99665.88;;;17.85;35.00
7962;BME280;4026;43.652;24.906;2023-03-13T12:25:15;99661.56;;;18.04;35.65
7962;BME280;4026;43.652;24.906;2023-03-13T12:27:48;99660.34;;;17.04;36.14
7962;BME280;4026;43.652;24.906;2023-03-13T12:30:28;99663.88;;;17.13;33.37
7962;BME280;4026;43.652;24.906;2023-03-13T12:33:04;99658.34;;;17.55;35.91
7962;BME280;4026;43.652;24.906;2023-03-13T12:35:40;99662.72;;;17.45;35.80
7962;BME280;4026;43.652;24.906;2023-03-13T12:38:14;99662.88;;;17.33;36.49
7962;BME280;4026;43.652;24.906;2023-03-13T12:40:48;99665.44;;;16.77;36.90
7962;BME280;4026;43.652;24.906;2023-03-13T12:43:20;99645.19;;;15.41;41.75
7962;BME280;4026;43.652;24.906;2023-03-13T12:46:21;99659.59;;;15.44;39.24
7962;BME280;4026;43.652;24.906;2023-03-13T12:49:21;99658.97;;;15.82;41.75
7962;BME280;4026;43.652;24.906;2023-03-13T12:52:06;99656.97;;;15.65;40.00
7962;BME280;4026;43.652;24.906;2023-03-13T12:54:51;99652.16;;;15.71;39.99
7962;BME280;4026;43.652;24.906;2023-03-13T12:57:41;99655.09;;;15.67;40.68
7962;BME280;4026;43.652;24.906;2023-03-13T13:00:18;99661.78;;;15.69;39.58
7962;BME280;4026;43.652;24.906;2023-03-13T13:02:46;99665.38;;;15.57;41.20
7962;BME280;4026;43.652;24.906;2023-03-13T13:05:18;99656.78;;;15.26;42.27
7962;BME280;4026;43.652;24.906;2023-03-13T13:07:52;99660.75;;;15.60;40.61
7962;BME280;4026;43.652;24.906;2023-03-13T13:10:21;99655.16;;;15.55;41.75
7962;BME280;4026;43.652;24.906;2023-03-13T13:13:16;99660.69;;;14.99;42.83
7962;BME280;4026;43.652;24.906;2023-03-13T13:15:46;99649.50;;;15.31;42.92
7962;BME280;4026;43.652;24.906;2023-03-13T13:18:24;99645.28;;;15.09;40.07
7962;BME280;4026;43.652;24.906;2023-03-13T13:21:19;99647.44;;;14.71;41.09
7962;BME280;4026;43.652;24.906;2023-03-13T13:23:47;99641.78;;;14.57;42.06
7962;BME280;4026;43.652;24.906;2023-03-13T13:26:46;99647.09;;;14.33;41.40